Bom Jardim, Brazil
Current Conditions -  °F | °C
As of 12:00 AM on Tuesday 21 Oct 2014 (Local Time) from SBTE Reporting Station
Clear Clear  
Wind Chill: 84°   Ceiling: Unl
Heat Index: 90°   Visibility: 6mi
Dew Point: 72°   Wind: 9mph
Humidity: 66%   Direction: 360°N
Pressure: 29.8"   Gusts: NA
Location:  4.74°S, 44.35°W
Report Text: SBTE 210300Z 36008KT CAVOK 29/22 Q1009
Loading
Personal Weather Stations






























Interactive Weather Map
Tropical Storm Tracking
New forecast layout! Learn more

10-Day Weather Forecast

Advertisements
Track Severe Weather on mobile